createdAt,value
2023-12-27T00:02:03.110Z,6.10
2023-12-27T00:04:31.370Z,6.00
2023-12-27T00:06:59.610Z,5.90
2023-12-27T00:09:27.641Z,5.80
2023-12-27T00:11:57.065Z,5.80
2023-12-27T00:14:25.093Z,5.80
2023-12-27T00:16:53.108Z,5.90
2023-12-27T00:19:21.330Z,5.80
2023-12-27T00:21:49.518Z,5.50
2023-12-27T00:24:17.605Z,5.40
2023-12-27T00:26:45.986Z,5.30
2023-12-27T00:29:15.410Z,5.30
2023-12-27T00:31:43.856Z,5.20
2023-12-27T00:34:12.111Z,5.30
2023-12-27T00:36:40.280Z,5.30
2023-12-27T00:39:11.542Z,5.20
2023-12-27T00:41:39.907Z,5.10
2023-12-27T00:44:08.063Z,5.00
2023-12-27T00:46:38.712Z,4.90
2023-12-27T00:49:07.033Z,4.90
2023-12-27T00:51:35.560Z,4.90
2023-12-27T00:54:03.694Z,4.80
2023-12-27T00:56:31.840Z,4.70
2023-12-27T00:59:00.241Z,4.70
2023-12-27T01:01:31.129Z,4.70
2023-12-27T01:04:00.992Z,4.80
2023-12-27T01:06:29.282Z,4.90
2023-12-27T01:08:58.684Z,5.00
2023-12-27T01:11:28.773Z,5.10
2023-12-27T01:13:56.887Z,5.10
2023-12-27T01:16:25.585Z,5.20
2023-12-27T01:18:54.197Z,5.10
2023-12-27T01:21:23.836Z,5.10
2023-12-27T01:23:51.866Z,5.10
2023-12-27T01:26:19.856Z,5.10
2023-12-27T01:28:47.911Z,5.00
2023-12-27T01:31:15.968Z,5.00
2023-12-27T01:33:44.301Z,5.00
2023-12-27T01:36:12.600Z,5.00
2023-12-27T01:38:41.967Z,5.00
2023-12-27T01:41:10.017Z,5.00
2023-12-27T01:43:38.863Z,5.00
2023-12-27T01:46:07.333Z,4.90
2023-12-27T01:48:37.640Z,5.00
2023-12-27T01:51:07.274Z,5.00
2023-12-27T01:53:35.674Z,5.00
2023-12-27T01:56:05.493Z,5.00
2023-12-27T01:58:34.115Z,4.90
2023-12-27T02:01:02.432Z,4.90
2023-12-27T02:03:31.553Z,5.00
2023-12-27T02:06:00.304Z,4.90
2023-12-27T02:08:28.939Z,4.90
2023-12-27T02:10:57.321Z,4.80
2023-12-27T02:13:26.716Z,4.70
2023-12-27T02:15:55.045Z,4.60
2023-12-27T02:18:23.703Z,4.50
2023-12-27T02:20:53.225Z,4.50
2023-12-27T02:23:23.147Z,4.50
2023-12-27T02:25:54.506Z,4.50
2023-12-27T02:28:22.568Z,4.50
2023-12-27T02:30:50.934Z,4.60
2023-12-27T02:33:19.137Z,4.50
2023-12-27T02:35:47.404Z,4.60
2023-12-27T02:38:15.509Z,4.50
2023-12-27T02:40:43.609Z,4.50
2023-12-27T02:43:12.991Z,4.40
2023-12-27T02:45:41.211Z,4.40
2023-12-27T02:48:09.512Z,4.40
2023-12-27T02:50:37.747Z,4.40
2023-12-27T02:53:05.805Z,4.40
2023-12-27T02:55:34.360Z,4.40
2023-12-27T02:58:02.414Z,4.30
2023-12-27T03:00:36.315Z,4.40
2023-12-27T03:03:04.979Z,4.40
2023-12-27T03:05:33.408Z,4.40
2023-12-27T03:08:01.511Z,4.30
2023-12-27T03:10:29.502Z,4.40
2023-12-27T03:12:57.544Z,4.30
2023-12-27T03:15:25.560Z,4.40
2023-12-27T03:17:55.229Z,4.30
2023-12-27T03:20:23.738Z,4.30
2023-12-27T03:22:51.764Z,4.20
2023-12-27T03:25:19.792Z,4.20
2023-12-27T03:27:48.206Z,4.10
2023-12-27T03:30:16.722Z,4.20
2023-12-27T03:32:44.809Z,4.20
2023-12-27T03:35:14.267Z,4.20
2023-12-27T03:37:46.136Z,4.30
2023-12-27T03:40:14.510Z,4.30
2023-12-27T03:42:42.529Z,4.20
2023-12-27T03:45:11.117Z,4.20
2023-12-27T03:47:39.193Z,4.20
2023-12-27T03:50:08.103Z,4.20
2023-12-27T03:52:37.492Z,4.20
2023-12-27T03:55:06.496Z,4.30
2023-12-27T03:57:34.686Z,4.30
2023-12-27T04:00:02.919Z,4.30
2023-12-27T04:02:35.505Z,4.40
2023-12-27T04:05:03.637Z,4.40
2023-12-27T04:07:31.890Z,4.40
2023-12-27T04:10:01.286Z,4.40
2023-12-27T04:12:29.650Z,4.40
2023-12-27T04:14:57.746Z,4.50
2023-12-27T04:17:26.609Z,4.50
2023-12-27T04:19:55.208Z,4.60
2023-12-27T04:22:23.250Z,4.60
2023-12-27T04:24:51.314Z,4.60
2023-12-27T04:27:20.784Z,4.70
2023-12-27T04:29:48.844Z,4.70
2023-12-27T04:32:16.873Z,4.70
2023-12-27T04:34:45.022Z,4.70
2023-12-27T04:37:13.205Z,4.80
2023-12-27T04:39:41.260Z,4.80
2023-12-27T04:42:09.347Z,4.90
2023-12-27T04:44:38.748Z,4.90
2023-12-27T04:47:08.707Z,5.00
2023-12-27T04:49:36.945Z,5.00
2023-12-27T04:52:06.697Z,5.00
2023-12-27T04:54:34.835Z,5.00
2023-12-27T04:57:02.907Z,5.00
2023-12-27T04:59:31.860Z,5.00
2023-12-27T05:02:01.327Z,5.10
2023-12-27T05:04:29.375Z,5.00
2023-12-27T05:06:57.547Z,5.10
2023-12-27T05:09:25.662Z,5.10
2023-12-27T05:11:53.694Z,5.10
2023-12-27T05:14:21.740Z,5.10
2023-12-27T05:16:50.018Z,5.20
2023-12-27T05:19:19.798Z,5.30
2023-12-27T05:21:47.924Z,5.30
2023-12-27T05:24:16.026Z,5.40
2023-12-27T05:26:44.341Z,5.40
2023-12-27T05:29:12.717Z,5.40
2023-12-27T05:31:40.824Z,5.40
2023-12-27T05:34:09.115Z,5.50
2023-12-27T05:36:38.725Z,5.40
2023-12-27T05:39:06.895Z,5.50
2023-12-27T05:41:34.927Z,5.50
2023-12-27T05:44:03.543Z,5.50
2023-12-27T05:46:35.929Z,5.50
2023-12-27T05:49:04.801Z,5.60
2023-12-27T05:51:34.347Z,5.60
2023-12-27T05:54:04.493Z,5.60
2023-12-27T05:56:33.341Z,5.70
2023-12-27T05:59:01.348Z,5.70
2023-12-27T06:01:29.987Z,5.70
2023-12-27T06:03:58.195Z,5.70
2023-12-27T06:06:26.296Z,5.80
2023-12-27T06:08:54.599Z,5.80
2023-12-27T06:11:24.132Z,5.80
2023-12-27T06:13:52.159Z,5.80
2023-12-27T06:16:20.142Z,5.80
2023-12-27T06:18:48.240Z,5.90
2023-12-27T06:21:16.282Z,5.90
2023-12-27T06:23:44.326Z,5.90
2023-12-27T06:26:12.443Z,5.90
2023-12-27T06:28:42.956Z,5.90
2023-12-27T06:31:11.226Z,6.00
2023-12-27T06:33:39.513Z,6.00
2023-12-27T06:36:08.657Z,6.00
2023-12-27T06:38:36.777Z,6.00
2023-12-27T06:41:05.103Z,6.10
2023-12-27T06:43:34.295Z,6.10
2023-12-27T06:46:03.096Z,6.10
2023-12-27T06:48:31.559Z,6.10
2023-12-27T06:50:59.783Z,6.20
2023-12-27T06:53:27.900Z,6.20
2023-12-27T06:55:55.921Z,6.20
2023-12-27T06:58:23.948Z,6.20
2023-12-27T07:00:53.967Z,6.20
2023-12-27T07:03:24.136Z,6.20
2023-12-27T07:05:52.390Z,6.20
2023-12-27T07:08:20.390Z,6.10
2023-12-27T07:10:48.426Z,6.10
2023-12-27T07:13:16.525Z,6.10
2023-12-27T07:15:44.584Z,6.10
2023-12-27T07:18:12.924Z,6.10
2023-12-27T07:20:42.369Z,6.10
2023-12-27T07:23:11.640Z,6.10
2023-12-27T07:25:39.813Z,6.10
2023-12-27T07:28:08.449Z,6.10
2023-12-27T07:30:36.593Z,6.10
2023-12-27T07:33:05.301Z,6.20
2023-12-27T07:35:33.692Z,6.20
2023-12-27T07:38:03.068Z,6.20
2023-12-27T07:40:31.116Z,6.20
2023-12-27T07:42:59.140Z,6.20
2023-12-27T07:45:27.276Z,6.20
2023-12-27T07:47:55.561Z,6.30
2023-12-27T07:50:23.778Z,6.30
2023-12-27T07:52:51.793Z,6.30
2023-12-27T07:55:21.199Z,6.30
2023-12-27T07:57:49.270Z,6.30
2023-12-27T08:00:19.319Z,6.40
2023-12-27T08:02:48.122Z,6.40
2023-12-27T08:05:17.107Z,6.40
2023-12-27T08:07:45.175Z,6.40
2023-12-27T08:10:13.274Z,6.40
2023-12-27T08:12:44.676Z,6.40
2023-12-27T08:15:13.029Z,6.50
2023-12-27T08:17:41.144Z,6.50
2023-12-27T08:20:11.621Z,6.50
2023-12-27T08:22:39.673Z,6.60
2023-12-27T08:25:13.517Z,6.60
2023-12-27T08:27:43.093Z,6.70
2023-12-27T08:30:11.781Z,6.70
2023-12-27T08:32:39.983Z,6.70
2023-12-27T08:35:08.685Z,6.80
2023-12-27T08:37:36.754Z,6.80
2023-12-27T08:40:05.399Z,6.80
2023-12-27T08:42:33.515Z,6.90
2023-12-27T08:45:03.252Z,6.90
2023-12-27T08:47:31.404Z,7.00
2023-12-27T08:50:04.319Z,7.00
2023-12-27T08:52:33.724Z,7.10
2023-12-27T08:55:03.397Z,7.20
2023-12-27T08:57:33.412Z,7.20
2023-12-27T09:00:03.646Z,7.20
2023-12-27T09:02:31.709Z,7.30
2023-12-27T09:04:59.861Z,7.40
2023-12-27T09:07:27.881Z,7.40
2023-12-27T09:09:57.301Z,7.40
2023-12-27T09:12:27.807Z,7.40
2023-12-27T09:14:55.836Z,7.40
2023-12-27T09:17:25.291Z,7.50
2023-12-27T09:19:53.770Z,7.50
2023-12-27T09:22:21.890Z,7.50
2023-12-27T09:24:50.163Z,7.50
2023-12-27T09:27:19.224Z,7.60
2023-12-27T09:29:47.338Z,7.60
2023-12-27T09:32:15.758Z,7.60
2023-12-27T09:34:45.246Z,7.60
2023-12-27T09:37:13.442Z,7.70
2023-12-27T09:39:41.529Z,7.70
2023-12-27T09:42:10.207Z,7.70
2023-12-27T09:44:39.671Z,7.70
2023-12-27T09:47:10.435Z,7.80
2023-12-27T09:49:39.764Z,7.80
2023-12-27T09:52:10.176Z,7.80
2023-12-27T09:54:38.444Z,7.80
2023-12-27T09:57:08.406Z,7.90
2023-12-27T09:59:40.942Z,7.90
2023-12-27T10:02:16.698Z,7.90
2023-12-27T10:04:50.158Z,7.90
2023-12-27T10:07:22.193Z,8.00
2023-12-27T10:09:50.540Z,8.00
2023-12-27T10:12:18.845Z,8.00
2023-12-27T10:14:48.806Z,8.10
2023-12-27T10:17:16.981Z,8.10
2023-12-27T10:19:46.105Z,8.10
2023-12-27T10:22:15.111Z,8.10
2023-12-27T10:24:44.566Z,8.10
2023-12-27T10:27:17.062Z,8.20
2023-12-27T10:29:49.803Z,8.30
2023-12-27T10:32:19.061Z,8.30
2023-12-27T10:34:47.923Z,8.30
2023-12-27T10:37:18.504Z,8.40
2023-12-27T10:39:48.417Z,8.50
2023-12-27T10:42:17.829Z,8.50
2023-12-27T10:44:48.085Z,8.60
2023-12-27T10:47:19.427Z,8.60
2023-12-27T10:49:49.632Z,8.70
2023-12-27T10:52:18.971Z,8.70
2023-12-27T10:54:54.559Z,8.70
2023-12-27T10:57:27.016Z,8.80
2023-12-27T10:59:56.300Z,8.80
2023-12-27T11:02:25.601Z,8.80
2023-12-27T11:04:54.811Z,8.80
2023-12-27T11:07:25.641Z,8.80
2023-12-27T11:09:57.466Z,8.80
2023-12-27T11:12:27.123Z,8.80
2023-12-27T11:14:57.229Z,8.80
2023-12-27T11:17:28.912Z,8.90
2023-12-27T11:19:57.104Z,8.90
2023-12-27T11:22:25.245Z,8.90
2023-12-27T11:24:55.947Z,8.90
2023-12-27T11:27:24.418Z,8.90
2023-12-27T11:29:52.529Z,8.90
2023-12-27T11:32:21.316Z,9.00
2023-12-27T11:34:49.533Z,9.00
2023-12-27T11:37:18.448Z,9.10
2023-12-27T11:39:49.854Z,9.20
2023-12-27T11:42:19.520Z,9.30
2023-12-27T11:44:50.749Z,9.30
2023-12-27T11:47:18.899Z,9.40
2023-12-27T11:50:22.156Z,9.50
2023-12-27T11:52:59.800Z,9.60
2023-12-27T11:55:35.492Z,9.60
2023-12-27T11:58:05.436Z,9.70
2023-12-27T12:00:33.683Z,9.70
2023-12-27T12:03:05.095Z,9.80
2023-12-27T12:05:50.492Z,9.80
2023-12-27T12:08:30.240Z,9.80
2023-12-27T12:11:09.134Z,9.80
2023-12-27T12:13:39.749Z,9.90
2023-12-27T12:16:08.647Z,9.80
2023-12-27T12:18:38.323Z,9.90
2023-12-27T12:21:06.662Z,9.80
2023-12-27T12:23:38.788Z,9.90
2023-12-27T12:26:07.876Z,9.90
2023-12-27T12:28:36.048Z,10.00
2023-12-27T12:31:05.809Z,10.00
2023-12-27T12:33:34.007Z,10.00
2023-12-27T12:36:02.168Z,10.00
2023-12-27T12:38:30.403Z,10.00
2023-12-27T12:40:58.475Z,10.10
2023-12-27T12:43:27.374Z,10.10
2023-12-27T12:45:58.678Z,10.10
2023-12-27T12:48:28.572Z,10.20
2023-12-27T12:51:11.207Z,10.20
2023-12-27T12:53:39.835Z,10.30
2023-12-27T12:56:10.043Z,10.30
2023-12-27T12:58:39.481Z,10.30
2023-12-27T13:01:09.886Z,10.40
2023-12-27T13:03:42.413Z,10.40
2023-12-27T13:06:10.827Z,10.40
2023-12-27T13:08:38.916Z,10.50
2023-12-27T13:11:07.160Z,10.50
2023-12-27T13:13:35.444Z,10.60
2023-12-27T13:16:03.458Z,10.70
2023-12-27T13:18:31.904Z,10.70
2023-12-27T13:21:02.268Z,10.80
2023-12-27T13:23:30.392Z,10.80
2023-12-27T13:25:58.424Z,10.70
2023-12-27T13:28:27.149Z,10.70
2023-12-27T13:30:55.670Z,10.70
2023-12-27T13:33:26.270Z,10.70
2023-12-27T13:35:54.506Z,10.60
2023-12-27T13:38:23.940Z,10.70
2023-12-27T13:40:52.416Z,10.60
2023-12-27T13:43:20.472Z,10.60
2023-12-27T13:45:48.809Z,10.60
2023-12-27T13:48:20.449Z,10.60
2023-12-27T13:50:50.378Z,10.50
2023-12-27T13:53:18.597Z,10.50
2023-12-27T13:55:48.002Z,10.50
2023-12-27T13:58:16.027Z,10.40
2023-12-27T14:00:44.128Z,10.40
2023-12-27T14:03:12.454Z,10.40
2023-12-27T14:05:43.787Z,10.40
2023-12-27T14:08:12.358Z,10.40
2023-12-27T14:10:40.437Z,10.40
2023-12-27T14:13:09.826Z,10.30
2023-12-27T14:15:38.131Z,10.30
2023-12-27T14:18:07.770Z,10.20
2023-12-27T14:20:35.943Z,10.20
2023-12-27T14:23:04.061Z,10.10
2023-12-27T14:25:36.342Z,10.20
2023-12-27T14:28:05.828Z,10.20
2023-12-27T14:30:36.228Z,10.20
2023-12-27T14:33:05.346Z,10.20
2023-12-27T14:35:33.539Z,10.10
2023-12-27T14:38:01.796Z,10.00
2023-12-27T14:40:31.221Z,9.90
2023-12-27T14:43:00.256Z,9.90
2023-12-27T14:45:28.786Z,9.90
2023-12-27T14:47:58.583Z,9.80
2023-12-27T14:50:28.235Z,9.80
2023-12-27T14:52:57.420Z,9.80
2023-12-27T14:55:33.235Z,9.70
2023-12-27T14:58:04.425Z,9.70
2023-12-27T15:00:32.597Z,9.70
2023-12-27T15:03:02.036Z,9.70
2023-12-27T15:05:30.080Z,9.60
2023-12-27T15:07:58.487Z,9.60
2023-12-27T15:10:26.832Z,9.60
2023-12-27T15:12:55.197Z,9.60
2023-12-27T15:15:23.409Z,9.60
2023-12-27T15:17:52.170Z,9.60
2023-12-27T15:20:22.531Z,9.50
2023-12-27T15:22:50.915Z,9.50
2023-12-27T15:25:18.959Z,9.50
2023-12-27T15:27:47.354Z,9.50
2023-12-27T15:30:16.378Z,9.60
2023-12-27T15:32:44.586Z,9.50
2023-12-27T15:35:12.823Z,9.50
2023-12-27T15:37:42.247Z,9.40
2023-12-27T15:40:11.259Z,9.40
2023-12-27T15:42:39.393Z,9.40
2023-12-27T15:45:08.950Z,9.40
2023-12-27T15:47:37.521Z,9.40
2023-12-27T15:50:06.621Z,9.40
2023-12-27T15:52:35.091Z,9.40
2023-12-27T15:55:05.450Z,9.30
2023-12-27T15:57:33.568Z,9.30
2023-12-27T16:00:01.672Z,9.30
2023-12-27T16:02:32.229Z,9.30
2023-12-27T16:05:00.404Z,9.30
2023-12-27T16:07:29.406Z,9.20
2023-12-27T16:09:57.538Z,9.20
2023-12-27T16:12:26.757Z,9.20
2023-12-27T16:14:54.978Z,9.10
2023-12-27T16:17:23.008Z,9.10
2023-12-27T16:19:53.294Z,9.00
2023-12-27T16:22:22.206Z,9.00
2023-12-27T16:24:50.746Z,8.90
2023-12-27T16:27:18.971Z,8.90
2023-12-27T16:29:48.385Z,8.90
2023-12-27T16:32:17.707Z,8.90
2023-12-27T16:34:45.972Z,8.90
2023-12-27T16:37:14.042Z,8.90
2023-12-27T16:39:42.197Z,8.80
2023-12-27T16:42:10.770Z,8.80
2023-12-27T16:44:38.904Z,8.80
2023-12-27T16:47:08.818Z,8.70
2023-12-27T16:49:36.946Z,8.70
2023-12-27T16:52:05.851Z,8.60
2023-12-27T16:54:33.991Z,8.60
2023-12-27T16:57:02.221Z,8.50
2023-12-27T16:59:30.303Z,8.50
2023-12-27T17:01:58.353Z,8.50
2023-12-27T17:04:27.817Z,8.50
2023-12-27T17:06:55.946Z,8.50
2023-12-27T17:09:23.996Z,8.40
2023-12-27T17:11:52.030Z,8.40
2023-12-27T17:14:20.086Z,8.40
2023-12-27T17:16:48.160Z,8.40
2023-12-27T17:19:16.509Z,8.30
2023-12-27T17:21:46.004Z,8.40
2023-12-27T17:24:14.608Z,8.40
2023-12-27T17:26:42.669Z,8.30
2023-12-27T17:29:10.651Z,8.30
2023-12-27T17:31:39.028Z,8.30
2023-12-27T17:34:07.258Z,8.20
2023-12-27T17:36:35.345Z,8.30
2023-12-27T17:39:03.883Z,8.20
2023-12-27T17:41:31.963Z,8.20
2023-12-27T17:44:00.048Z,8.20
2023-12-27T17:46:28.057Z,8.20
2023-12-27T17:48:56.322Z,8.20
2023-12-27T17:51:24.902Z,8.10
2023-12-27T17:53:53.072Z,8.10
2023-12-27T17:56:22.443Z,8.10
2023-12-27T17:58:50.495Z,8.10
2023-12-27T18:01:18.688Z,8.10
2023-12-27T18:03:46.852Z,8.10
2023-12-27T18:06:15.004Z,8.00
2023-12-27T18:08:45.971Z,7.90
2023-12-27T18:11:15.938Z,8.00
2023-12-27T18:13:45.340Z,8.10
2023-12-27T18:16:13.594Z,8.00
2023-12-27T18:18:41.997Z,8.00
2023-12-27T18:21:11.481Z,8.00
2023-12-27T18:23:39.787Z,7.90
2023-12-27T18:26:08.133Z,7.90
2023-12-27T18:28:37.357Z,8.00
2023-12-27T18:31:06.899Z,7.90
2023-12-27T18:33:35.185Z,8.00
2023-12-27T18:36:04.809Z,8.00
2023-12-27T18:38:32.926Z,8.10
2023-12-27T18:41:01.060Z,8.10
2023-12-27T18:43:29.160Z,8.10
2023-12-27T18:45:57.776Z,8.20
2023-12-27T18:48:27.643Z,8.10
2023-12-27T18:50:55.850Z,8.10
2023-12-27T18:53:24.031Z,8.20
2023-12-27T18:55:52.083Z,8.20
2023-12-27T18:58:20.132Z,8.20
2023-12-27T19:00:49.116Z,8.20
2023-12-27T19:03:17.496Z,8.20
2023-12-27T19:05:49.143Z,8.30
2023-12-27T19:08:17.167Z,8.30
2023-12-27T19:10:45.261Z,8.30
2023-12-27T19:13:13.290Z,8.10
2023-12-27T19:15:41.395Z,8.20
2023-12-27T19:18:09.855Z,8.30
2023-12-27T19:20:37.941Z,8.40
2023-12-27T19:23:07.314Z,8.60
2023-12-27T19:25:35.373Z,8.70
2023-12-27T19:28:04.425Z,8.70
2023-12-27T19:30:32.559Z,8.70
2023-12-27T19:33:01.055Z,8.60
2023-12-27T19:35:29.468Z,8.60
2023-12-27T19:37:58.516Z,8.60
2023-12-27T19:40:28.778Z,8.60
2023-12-27T19:42:57.040Z,8.60
2023-12-27T19:45:25.277Z,8.50
2023-12-27T19:47:53.379Z,8.50
2023-12-27T19:50:21.469Z,8.40
2023-12-27T19:52:49.633Z,8.30
2023-12-27T19:55:19.249Z,8.20
2023-12-27T19:57:50.148Z,8.20
2023-12-27T20:00:18.745Z,8.10
2023-12-27T20:02:46.817Z,8.10
2023-12-27T20:05:14.950Z,8.00
2023-12-27T20:07:43.069Z,8.00
2023-12-27T20:10:11.867Z,8.10
2023-12-27T20:12:40.157Z,8.00
2023-12-27T20:15:11.165Z,8.10
2023-12-27T20:17:39.593Z,8.40
2023-12-27T20:20:08.725Z,8.50
2023-12-27T20:22:36.781Z,8.50
2023-12-27T20:25:05.164Z,8.50
2023-12-27T20:27:33.231Z,8.70
2023-12-27T20:30:01.345Z,9.10
2023-12-27T20:32:32.595Z,9.20
2023-12-27T20:35:01.628Z,9.40
2023-12-27T20:37:29.862Z,9.40
2023-12-27T20:39:59.665Z,9.50
2023-12-27T20:42:28.040Z,9.60
2023-12-27T20:44:56.095Z,9.50
2023-12-27T20:47:24.136Z,9.60
2023-12-27T20:49:53.752Z,9.60
2023-12-27T20:52:22.068Z,9.70
2023-12-27T20:54:50.226Z,9.70
2023-12-27T20:57:18.340Z,9.80
2023-12-27T20:59:47.765Z,9.90
2023-12-27T21:02:15.830Z,9.90
2023-12-27T21:04:46.580Z,9.90
2023-12-27T21:07:18.228Z,9.90
2023-12-27T21:09:46.322Z,9.90
2023-12-27T21:12:14.421Z,9.80
2023-12-27T21:14:42.509Z,9.80
2023-12-27T21:17:10.545Z,9.80
2023-12-27T21:19:38.672Z,9.90
2023-12-27T21:22:06.761Z,10.00
2023-12-27T21:24:36.525Z,10.00
2023-12-27T21:27:05.362Z,10.10
2023-12-27T21:29:33.395Z,10.10
2023-12-27T21:32:01.683Z,10.20
2023-12-27T21:34:29.842Z,10.20
2023-12-27T21:36:58.009Z,10.10
2023-12-27T21:39:25.145Z,10.20
2023-12-27T21:41:56.861Z,10.20
2023-12-27T21:44:25.024Z,10.20
2023-12-27T21:46:53.046Z,10.20
2023-12-27T21:49:21.334Z,10.30
2023-12-27T21:51:49.535Z,10.20
2023-12-27T21:54:17.599Z,10.20
2023-12-27T21:56:45.643Z,10.20
2023-12-27T21:59:15.051Z,10.20
2023-12-27T22:01:43.360Z,10.20
2023-12-27T22:04:11.475Z,10.20
2023-12-27T22:06:40.535Z,10.30
2023-12-27T22:09:09.403Z,10.10
2023-12-27T22:11:37.455Z,10.00
2023-12-27T22:14:06.969Z,10.10
2023-12-27T22:16:37.409Z,10.10
2023-12-27T22:19:05.608Z,10.10
2023-12-27T22:21:33.790Z,10.20
2023-12-27T22:24:01.917Z,10.30
2023-12-27T22:26:30.008Z,10.40
2023-12-27T22:28:58.076Z,10.40
2023-12-27T22:31:26.505Z,10.50
2023-12-27T22:33:56.048Z,10.60
2023-12-27T22:36:25.273Z,10.60
2023-12-27T22:38:55.813Z,10.60
2023-12-27T22:41:23.259Z,10.70
2023-12-27T22:43:51.710Z,10.70
2023-12-27T22:46:19.778Z,10.80
2023-12-27T22:48:48.033Z,10.80
2023-12-27T22:51:17.735Z,10.80
2023-12-27T22:53:45.901Z,11.00
2023-12-27T22:56:14.058Z,11.00
2023-12-27T22:58:42.107Z,11.10
2023-12-27T23:01:10.877Z,11.20
2023-12-27T23:03:39.070Z,11.10
2023-12-27T23:06:10.913Z,11.10
2023-12-27T23:08:40.609Z,11.20
2023-12-27T23:11:08.863Z,11.10
2023-12-27T23:13:36.901Z,11.20
2023-12-27T23:16:05.250Z,11.10
2023-12-27T23:18:33.516Z,11.10
2023-12-27T23:21:01.712Z,11.10
2023-12-27T23:23:29.756Z,11.10
2023-12-27T23:26:02.297Z,11.10
2023-12-27T23:28:30.907Z,11.10
2023-12-27T23:30:59.136Z,11.00
2023-12-27T23:33:27.490Z,10.80
2023-12-27T23:35:55.670Z,10.50
2023-12-27T23:38:23.699Z,10.40
2023-12-27T23:40:51.692Z,10.30
2023-12-27T23:43:21.410Z,10.40
2023-12-27T23:45:49.498Z,10.30
2023-12-27T23:48:18.395Z,10.30
2023-12-27T23:50:46.678Z,10.30
2023-12-27T23:53:14.731Z,10.30
2023-12-27T23:55:42.740Z,10.30
2023-12-27T23:58:10.789Z,10.20
